createdAt,value
2019-06-15T00:02:42.312Z,18.80
2019-06-15T00:05:30.688Z,16.27
2019-06-15T00:08:18.630Z,15.83
2019-06-15T00:11:06.787Z,17.10
2019-06-15T00:13:54.763Z,16.33
2019-06-15T00:16:42.594Z,16.40
2019-06-15T00:19:31.101Z,17.10
2019-06-15T00:22:18.830Z,18.33
2019-06-15T00:25:08.047Z,18.50
2019-06-15T00:27:56.041Z,18.17
2019-06-15T00:30:44.494Z,20.93
2019-06-15T00:33:32.514Z,19.40
2019-06-15T00:36:20.754Z,20.40
2019-06-15T00:39:09.134Z,19.83
2019-06-15T00:41:57.880Z,21.43
2019-06-15T00:44:46.263Z,20.00
2019-06-15T00:47:34.770Z,20.30
2019-06-15T00:50:22.865Z,22.23
2019-06-15T00:53:10.511Z,21.30
2019-06-15T00:55:58.678Z,22.47
2019-06-15T00:58:47.098Z,23.17
2019-06-15T01:01:35.626Z,21.73
2019-06-15T01:04:23.873Z,20.83
2019-06-15T01:07:11.938Z,20.50
2019-06-15T01:10:00.465Z,22.37
2019-06-15T01:12:48.397Z,20.60
2019-06-15T01:15:36.751Z,20.67
2019-06-15T01:18:25.507Z,23.47
2019-06-15T01:21:13.635Z,24.20
2019-06-15T01:24:02.020Z,22.70
2019-06-15T01:26:50.048Z,24.37
2019-06-15T01:29:38.714Z,23.50
2019-06-15T01:32:26.692Z,26.10
2019-06-15T01:35:15.367Z,24.33
2019-06-15T01:38:03.591Z,25.40
2019-06-15T01:40:51.763Z,26.77
2019-06-15T01:43:40.026Z,26.43
2019-06-15T01:46:28.331Z,26.80
2019-06-15T01:49:16.601Z,27.10
2019-06-15T01:52:04.745Z,27.93
2019-06-15T01:54:52.790Z,29.13
2019-06-15T01:57:41.323Z,29.60
2019-06-15T02:00:31.083Z,31.03
2019-06-15T02:03:19.515Z,32.80
2019-06-15T02:06:08.148Z,33.57
2019-06-15T02:08:57.679Z,31.80
2019-06-15T02:11:45.874Z,33.03
2019-06-15T02:14:34.802Z,30.47
2019-06-15T02:17:23.210Z,33.17
2019-06-15T02:20:11.691Z,31.83
2019-06-15T02:23:00.105Z,32.60
2019-06-15T02:25:48.574Z,34.03
2019-06-15T02:28:37.280Z,32.30
2019-06-15T02:31:26.202Z,34.80
2019-06-15T02:34:15.035Z,32.07
2019-06-15T02:37:03.064Z,33.77
2019-06-15T02:39:51.983Z,34.13
2019-06-15T02:42:40.714Z,36.80
2019-06-15T02:45:28.905Z,33.97
2019-06-15T02:48:17.242Z,33.80
2019-06-15T02:51:05.081Z,34.20
2019-06-15T02:53:53.367Z,36.10
2019-06-15T02:56:41.170Z,35.20
2019-06-15T02:59:31.740Z,34.50
2019-06-15T03:02:19.393Z,36.63
2019-06-15T03:05:08.774Z,35.33
2019-06-15T03:07:57.441Z,37.83
2019-06-15T03:10:46.335Z,38.10
2019-06-15T03:13:35.413Z,37.20
2019-06-15T03:16:24.075Z,37.20
2019-06-15T03:19:12.207Z,41.10
2019-06-15T03:22:01.090Z,38.60
2019-06-15T03:24:49.431Z,40.80
2019-06-15T03:27:37.341Z,36.73
2019-06-15T03:30:26.120Z,36.40
2019-06-15T03:33:14.954Z,35.40
2019-06-15T03:36:03.839Z,33.40
2019-06-15T03:38:52.156Z,36.37
2019-06-15T03:41:40.950Z,35.43
2019-06-15T03:44:29.714Z,36.57
2019-06-15T03:47:18.360Z,36.10
2019-06-15T03:50:07.697Z,38.63
2019-06-15T03:52:56.221Z,36.73
2019-06-15T03:55:44.374Z,36.33
2019-06-15T03:58:32.727Z,37.07
2019-06-15T04:01:34.054Z,36.30
2019-06-15T04:04:22.510Z,36.10
2019-06-15T04:07:10.657Z,34.27
2019-06-15T04:09:58.523Z,36.00
2019-06-15T04:12:47.202Z,36.53
2019-06-15T04:15:35.450Z,35.43
2019-06-15T04:18:23.882Z,35.53
2019-06-15T04:21:12.547Z,36.30
2019-06-15T04:24:01.046Z,35.07
2019-06-15T04:26:49.241Z,33.50
2019-06-15T04:29:37.712Z,33.60
2019-06-15T04:32:25.645Z,34.80
2019-06-15T04:35:13.781Z,31.70
2019-06-15T04:38:01.963Z,32.17
2019-06-15T04:40:50.388Z,32.70
2019-06-15T04:43:38.110Z,30.27
2019-06-15T04:46:26.603Z,31.27
2019-06-15T04:49:16.091Z,31.33
2019-06-15T04:52:04.846Z,27.93
2019-06-15T04:54:54.037Z,27.67
2019-06-15T04:57:43.605Z,30.20
2019-06-15T05:00:31.547Z,28.00
2019-06-15T05:03:20.143Z,30.10
2019-06-15T05:06:08.407Z,32.80
2019-06-15T05:08:56.422Z,32.67
2019-06-15T05:11:45.428Z,32.50
2019-06-15T05:14:34.038Z,32.17
2019-06-15T05:17:22.668Z,25.83
2019-06-15T05:20:11.357Z,27.13
2019-06-15T05:22:59.518Z,26.40
2019-06-15T05:25:47.725Z,27.80
2019-06-15T05:28:36.586Z,24.40
2019-06-15T05:31:25.690Z,25.03
2019-06-15T05:34:14.181Z,22.63
2019-06-15T05:37:02.401Z,20.77
2019-06-15T05:39:51.055Z,21.37
2019-06-15T05:42:38.905Z,22.03
2019-06-15T05:45:27.001Z,21.03
2019-06-15T05:48:15.206Z,19.13
2019-06-15T05:51:03.492Z,19.67
2019-06-15T05:53:52.642Z,16.53
2019-06-15T05:56:40.714Z,18.87
2019-06-15T05:59:29.635Z,18.80
2019-06-15T06:02:20.971Z,19.30
2019-06-15T06:05:08.596Z,19.43
2019-06-15T06:07:57.057Z,18.57
2019-06-15T06:10:45.273Z,17.07
2019-06-15T06:13:33.489Z,18.23
2019-06-15T06:16:21.775Z,19.20
2019-06-15T06:19:09.944Z,18.37
2019-06-15T06:21:58.632Z,18.47
2019-06-15T06:24:46.578Z,18.80
2019-06-15T06:27:36.768Z,18.10
2019-06-15T06:30:24.666Z,15.60
2019-06-15T06:33:12.935Z,15.03
2019-06-15T06:36:01.397Z,14.60
2019-06-15T06:38:49.294Z,14.23
2019-06-15T06:41:37.897Z,14.20
2019-06-15T06:44:26.678Z,14.17
2019-06-15T06:47:15.538Z,15.00
2019-06-15T06:50:04.290Z,16.57
2019-06-15T06:52:53.038Z,19.40
2019-06-15T06:55:41.291Z,21.57
2019-06-15T06:58:29.331Z,22.70
2019-06-15T07:01:17.756Z,23.53
2019-06-15T07:04:06.217Z,24.80
2019-06-15T07:06:54.510Z,25.40
2019-06-15T07:09:43.275Z,25.37
2019-06-15T07:12:32.539Z,29.87
2019-06-15T07:15:21.298Z,30.73
2019-06-15T07:18:09.502Z,36.20
2019-06-15T07:20:58.307Z,35.90
2019-06-15T07:23:46.763Z,41.67
2019-06-15T07:26:35.364Z,43.03
2019-06-15T07:29:24.490Z,45.33
2019-06-15T07:32:12.586Z,45.07
2019-06-15T07:35:00.746Z,49.23
2019-06-15T07:37:49.722Z,43.70
2019-06-15T07:40:37.860Z,43.70
2019-06-15T07:43:25.896Z,43.63
2019-06-15T07:46:13.721Z,38.47
2019-06-15T07:49:04.895Z,40.47
2019-06-15T07:51:52.474Z,39.17
2019-06-15T07:54:40.130Z,39.87
2019-06-15T07:57:28.802Z,40.37
2019-06-15T08:00:18.039Z,44.83
2019-06-15T08:03:06.577Z,50.63
2019-06-15T08:05:54.750Z,51.43
2019-06-15T08:08:43.105Z,51.83
2019-06-15T08:11:31.676Z,56.33
2019-06-15T08:14:20.360Z,57.40
2019-06-15T08:17:09.245Z,58.00
2019-06-15T08:19:57.760Z,57.60
2019-06-15T08:22:46.356Z,57.90
2019-06-15T08:25:35.068Z,48.27
2019-06-15T08:28:23.630Z,50.87
2019-06-15T08:31:11.770Z,52.33
2019-06-15T08:33:59.910Z,52.57
2019-06-15T08:36:48.829Z,42.70
2019-06-15T08:39:36.869Z,40.70
2019-06-15T08:42:25.023Z,38.33
2019-06-15T08:45:13.559Z,39.13
2019-06-15T08:48:01.922Z,35.43
2019-06-15T08:50:49.873Z,34.17
2019-06-15T08:53:39.227Z,32.13
2019-06-15T08:56:27.458Z,32.90
2019-06-15T08:59:16.139Z,34.03
2019-06-15T09:02:04.096Z,31.37
2019-06-15T09:04:52.379Z,32.00
2019-06-15T09:07:40.906Z,29.87
2019-06-15T09:10:28.843Z,29.00
2019-06-15T09:13:16.718Z,29.27
2019-06-15T09:16:04.679Z,27.90
2019-06-15T09:18:53.266Z,24.83
2019-06-15T09:21:42.162Z,24.80
2019-06-15T09:24:30.731Z,22.47
2019-06-15T09:27:19.041Z,23.87
2019-06-15T09:30:07.615Z,22.53
2019-06-15T09:32:55.822Z,22.73
2019-06-15T09:35:44.545Z,22.97
2019-06-15T09:38:33.558Z,22.10
2019-06-15T09:41:22.533Z,20.53
2019-06-15T09:44:10.884Z,19.87
2019-06-15T09:46:58.996Z,20.47
2019-06-15T09:49:46.683Z,18.83
2019-06-15T09:52:35.134Z,19.23
2019-06-15T09:55:23.607Z,21.67
2019-06-15T09:58:12.034Z,21.23
2019-06-15T10:01:00.657Z,19.20
2019-06-15T10:03:49.447Z,20.07
2019-06-15T10:06:38.099Z,21.33
2019-06-15T10:09:26.380Z,23.80
2019-06-15T10:12:14.640Z,25.00
2019-06-15T10:15:03.170Z,25.07
2019-06-15T10:17:51.522Z,23.83
2019-06-15T10:20:39.662Z,19.57
2019-06-15T10:23:28.854Z,15.23
2019-06-15T10:26:17.615Z,14.10
2019-06-15T10:29:05.809Z,11.13
2019-06-15T10:31:53.547Z,9.20
2019-06-15T10:34:41.750Z,8.20
2019-06-15T10:37:30.059Z,8.00
2019-06-15T10:40:18.494Z,6.70
2019-06-15T10:43:06.692Z,10.93
2019-06-15T10:45:54.601Z,7.37
2019-06-15T10:48:42.546Z,9.23
2019-06-15T10:51:31.338Z,9.70
2019-06-15T10:54:20.131Z,9.67
2019-06-15T10:57:08.655Z,10.73
2019-06-15T10:59:57.749Z,8.87
2019-06-15T11:02:46.375Z,10.17
2019-06-15T11:05:35.264Z,8.60
2019-06-15T11:08:24.007Z,10.50
2019-06-15T11:11:21.745Z,10.47
2019-06-15T11:14:11.054Z,11.50
2019-06-15T11:17:00.589Z,13.57
2019-06-15T11:19:48.693Z,14.93
2019-06-15T11:22:36.911Z,17.47
2019-06-15T11:25:25.163Z,19.57
2019-06-15T11:28:13.304Z,15.93
2019-06-15T11:31:01.266Z,15.57
2019-06-15T11:33:49.380Z,13.10
2019-06-15T11:36:38.021Z,13.40
2019-06-15T11:39:26.523Z,12.00
2019-06-15T11:42:14.492Z,9.50
2019-06-15T11:45:02.909Z,8.67
2019-06-15T11:47:50.992Z,7.77
2019-06-15T11:50:40.348Z,10.17
2019-06-15T11:53:29.243Z,10.07
2019-06-15T11:56:17.819Z,10.30
2019-06-15T11:59:06.694Z,11.80
2019-06-15T12:01:55.110Z,9.73
2019-06-15T12:04:57.648Z,10.20
2019-06-15T12:07:34.728Z,8.30
2019-06-15T12:10:23.318Z,5.20
2019-06-15T12:13:11.797Z,4.73
2019-06-15T12:16:00.522Z,3.60
2019-06-15T12:18:50.030Z,3.80
2019-06-15T12:21:39.294Z,2.90
2019-06-15T12:24:26.918Z,3.80
2019-06-15T12:27:15.728Z,2.80
2019-06-15T12:30:04.486Z,2.73
2019-06-15T12:32:52.470Z,3.50
2019-06-15T12:35:41.443Z,3.60
2019-06-15T12:38:30.319Z,3.37
2019-06-15T12:41:18.886Z,3.40
2019-06-15T12:44:07.146Z,3.90
2019-06-15T12:46:55.973Z,2.10
2019-06-15T12:49:44.058Z,2.20
2019-06-15T12:52:31.733Z,1.90
2019-06-15T12:55:19.901Z,1.90
2019-06-15T12:58:08.549Z,2.27
2019-06-15T13:01:02.888Z,2.42
2019-06-15T13:03:47.255Z,2.35
2019-06-15T13:06:35.640Z,3.02
2019-06-15T13:09:23.802Z,1.90
2019-06-15T13:12:12.434Z,2.58
2019-06-15T13:15:01.412Z,2.62
2019-06-15T13:17:50.141Z,1.90
2019-06-15T13:20:38.901Z,2.62
2019-06-15T13:23:26.814Z,1.50
2019-06-15T13:26:14.999Z,1.62
2019-06-15T13:29:02.864Z,1.70
2019-06-15T13:31:51.340Z,4.72
2019-06-15T13:34:40.426Z,2.67
2019-06-15T13:37:41.365Z,5.90
2019-06-15T13:40:18.407Z,2.22
2019-06-15T13:43:06.346Z,3.83
2019-06-15T13:45:55.115Z,2.87
2019-06-15T13:48:43.981Z,1.92
2019-06-15T13:51:32.081Z,2.17
2019-06-15T13:54:20.218Z,2.00
2019-06-15T13:57:09.130Z,1.90
2019-06-15T13:59:57.984Z,2.58
2019-06-15T14:02:46.467Z,3.12
2019-06-15T14:05:34.901Z,3.75
2019-06-15T14:08:23.635Z,1.77
2019-06-15T14:11:11.694Z,3.33
2019-06-15T14:14:00.481Z,4.10
2019-06-15T14:16:48.861Z,4.10
2019-06-15T14:19:37.710Z,3.60
2019-06-15T14:22:25.859Z,5.62
2019-06-15T14:25:14.414Z,2.75
2019-06-15T14:28:02.409Z,2.35
2019-06-15T14:30:50.954Z,2.85
2019-06-15T14:33:39.549Z,3.00
2019-06-15T14:36:27.715Z,4.65
2019-06-15T14:39:15.604Z,2.90
2019-06-15T14:42:04.324Z,4.40
2019-06-15T14:44:52.806Z,3.50
2019-06-15T14:47:40.990Z,3.50
2019-06-15T14:50:28.934Z,3.00
2019-06-15T14:53:17.125Z,4.08
2019-06-15T14:56:06.818Z,3.70
2019-06-15T14:58:56.346Z,4.60
2019-06-15T15:01:47.002Z,4.25
2019-06-15T15:04:36.805Z,4.92
2019-06-15T15:07:26.318Z,5.30
2019-06-15T15:10:16.306Z,4.25
2019-06-15T15:13:06.703Z,6.53
2019-06-15T15:15:56.972Z,4.67
2019-06-15T15:18:46.488Z,5.05
2019-06-15T15:21:36.998Z,5.20
2019-06-15T15:24:24.214Z,4.30
2019-06-15T15:27:12.862Z,4.43
2019-06-15T15:30:01.553Z,4.63
2019-06-15T15:32:50.262Z,4.50
2019-06-15T15:35:38.964Z,4.80
2019-06-15T15:38:27.028Z,4.57
2019-06-15T15:41:17.113Z,4.63
2019-06-15T15:44:05.746Z,4.27
2019-06-15T15:46:56.746Z,4.40
2019-06-15T15:49:47.236Z,3.90
2019-06-15T15:52:37.404Z,3.93
2019-06-15T15:55:26.489Z,5.50
2019-06-15T15:58:16.631Z,6.30
2019-06-15T16:01:06.599Z,5.07
2019-06-15T16:03:56.266Z,5.90
2019-06-15T16:06:46.775Z,5.60
2019-06-15T16:09:36.061Z,7.00
2019-06-15T16:12:24.749Z,7.50
2019-06-15T16:15:12.778Z,7.10
2019-06-15T16:18:01.859Z,7.40
2019-06-15T16:20:50.086Z,8.33
2019-06-15T16:23:38.426Z,9.40
2019-06-15T16:26:27.302Z,6.90
2019-06-15T16:29:16.441Z,6.50
2019-06-15T16:32:06.971Z,7.60
2019-06-15T16:34:54.738Z,9.07
2019-06-15T16:37:42.939Z,8.83
2019-06-15T16:40:38.158Z,6.00
2019-06-15T16:43:28.732Z,9.47
2019-06-15T16:46:17.244Z,8.30
2019-06-15T16:49:05.855Z,5.47
2019-06-15T16:51:54.142Z,4.53
2019-06-15T16:54:42.710Z,5.73
2019-06-15T16:57:31.051Z,5.13
2019-06-15T17:00:20.710Z,5.73
2019-06-15T17:03:20.963Z,5.73
2019-06-15T17:05:59.541Z,4.43
2019-06-15T17:08:47.981Z,5.20
2019-06-15T17:11:36.708Z,5.60
2019-06-15T17:14:27.132Z,7.20
2019-06-15T17:17:17.362Z,8.20
2019-06-15T17:20:06.566Z,8.20
2019-06-15T17:22:56.240Z,4.47
2019-06-15T17:25:44.587Z,4.53
2019-06-15T17:28:33.183Z,4.73
2019-06-15T17:31:22.194Z,3.83
2019-06-15T17:34:10.402Z,5.70
2019-06-15T17:36:58.496Z,4.73
2019-06-15T17:39:46.802Z,4.33
2019-06-15T17:42:36.898Z,6.50
2019-06-15T17:45:26.665Z,5.10
2019-06-15T17:48:17.409Z,4.77
2019-06-15T17:51:06.588Z,5.27
2019-06-15T17:53:56.397Z,4.53
2019-06-15T17:56:46.257Z,7.00
2019-06-15T17:59:36.402Z,6.23
2019-06-15T18:02:26.246Z,5.23
2019-06-15T18:05:14.350Z,5.20
2019-06-15T18:08:02.407Z,5.20
2019-06-15T18:10:51.197Z,5.73
2019-06-15T18:13:39.455Z,6.87
2019-06-15T18:16:30.534Z,5.10
2019-06-15T18:19:18.725Z,7.63
2019-06-15T18:22:07.213Z,6.13
2019-06-15T18:24:56.853Z,7.43
2019-06-15T18:27:46.270Z,5.63
2019-06-15T18:30:37.148Z,6.37
2019-06-15T18:33:27.226Z,6.77
2019-06-15T18:36:17.131Z,8.57
2019-06-15T18:39:07.724Z,8.07
2019-06-15T18:41:56.066Z,6.30
2019-06-15T18:44:47.359Z,6.10
2019-06-15T18:47:36.417Z,6.70
2019-06-15T18:50:33.278Z,7.23
2019-06-15T18:53:21.402Z,6.70
2019-06-15T18:56:09.987Z,5.50
2019-06-15T18:58:58.344Z,5.83
2019-06-15T19:01:47.225Z,5.67
2019-06-15T19:04:35.837Z,6.00
2019-06-15T19:07:26.841Z,5.03
2019-06-15T19:10:18.520Z,6.87
2019-06-15T19:13:07.643Z,6.27
2019-06-15T19:15:57.270Z,7.03
2019-06-15T19:18:46.493Z,6.60
2019-06-15T19:21:35.015Z,7.80
2019-06-15T19:24:25.917Z,7.30
2019-06-15T19:27:15.981Z,5.90
2019-06-15T19:30:04.279Z,5.77
2019-06-15T19:32:52.397Z,5.60
2019-06-15T19:35:40.602Z,5.13
2019-06-15T19:38:28.660Z,5.23
2019-06-15T19:41:17.484Z,7.13
2019-06-15T19:44:06.250Z,5.77
2019-06-15T19:46:56.741Z,5.97
2019-06-15T19:49:46.692Z,5.67
2019-06-15T19:52:36.034Z,6.33
2019-06-15T19:55:26.735Z,6.33
2019-06-15T19:58:16.414Z,6.50
2019-06-15T20:01:06.752Z,5.83
2019-06-15T20:03:57.478Z,5.87
2019-06-15T20:06:46.133Z,6.00
2019-06-15T20:09:33.796Z,6.47
2019-06-15T20:12:22.225Z,6.10
2019-06-15T20:15:12.379Z,6.77
2019-06-15T20:18:00.959Z,6.50
2019-06-15T20:20:49.123Z,7.10
2019-06-15T20:23:37.729Z,7.50
2019-06-15T20:26:26.923Z,7.53
2019-06-15T20:29:17.530Z,7.00
2019-06-15T20:32:06.781Z,6.33
2019-06-15T20:34:55.391Z,7.33
2019-06-15T20:37:46.377Z,6.17
2019-06-15T20:40:36.230Z,6.67
2019-06-15T20:43:27.053Z,7.00
2019-06-15T20:46:17.063Z,6.67
2019-06-15T20:49:06.313Z,7.80
2019-06-15T20:51:55.992Z,10.43
2019-06-15T20:54:46.280Z,8.20
2019-06-15T20:57:33.587Z,7.60
2019-06-15T21:00:21.238Z,7.60
2019-06-15T21:03:09.717Z,8.40
2019-06-15T21:05:58.011Z,8.27
2019-06-15T21:08:46.958Z,9.70
2019-06-15T21:11:36.357Z,9.17
2019-06-15T21:14:27.144Z,8.83
2019-06-15T21:17:15.136Z,9.83
2019-06-15T21:20:03.273Z,8.90
2019-06-15T21:22:51.333Z,9.03
2019-06-15T21:25:39.378Z,8.87
2019-06-15T21:28:27.484Z,9.57
2019-06-15T21:31:16.717Z,8.27
2019-06-15T21:34:07.045Z,9.17
2019-06-15T21:36:56.698Z,8.10
2019-06-15T21:39:46.808Z,8.90
2019-06-15T21:42:36.173Z,9.27
2019-06-15T21:45:25.329Z,9.30
2019-06-15T21:48:14.433Z,8.83
2019-06-15T21:51:02.494Z,10.60
2019-06-15T21:53:50.709Z,9.83
2019-06-15T21:56:39.114Z,10.03
2019-06-15T21:59:27.690Z,9.43
2019-06-15T22:02:16.095Z,9.10
2019-06-15T22:05:06.977Z,10.47
2019-06-15T22:07:56.642Z,10.10
2019-06-15T22:10:44.960Z,10.50
2019-06-15T22:13:34.115Z,10.80
2019-06-15T22:16:22.688Z,9.97
2019-06-15T22:19:10.626Z,11.63
2019-06-15T22:21:59.198Z,12.43
2019-06-15T22:24:48.046Z,10.73
2019-06-15T22:27:37.040Z,11.23
2019-06-15T22:30:27.703Z,11.73
2019-06-15T22:33:16.444Z,12.70
2019-06-15T22:36:18.557Z,11.90
2019-06-15T22:38:56.994Z,10.60
2019-06-15T22:41:46.998Z,11.33
2019-06-15T22:44:37.287Z,10.20
2019-06-15T22:47:27.084Z,10.57
2019-06-15T22:50:16.194Z,11.13
2019-06-15T22:53:07.187Z,10.17
2019-06-15T22:55:56.887Z,10.10
2019-06-15T22:58:46.090Z,11.17
2019-06-15T23:01:35.078Z,12.40
2019-06-15T23:04:23.700Z,11.23
2019-06-15T23:07:12.045Z,12.20
2019-06-15T23:10:00.159Z,11.63
2019-06-15T23:12:48.805Z,11.23
2019-06-15T23:15:37.238Z,12.03
2019-06-15T23:18:25.771Z,12.87
2019-06-15T23:21:17.075Z,12.23
2019-06-15T23:24:06.687Z,12.30
2019-06-15T23:26:56.945Z,11.87
2019-06-15T23:29:46.320Z,12.83
2019-06-15T23:32:33.922Z,12.87
2019-06-15T23:35:23.312Z,12.37
2019-06-15T23:38:12.092Z,12.20
2019-06-15T23:41:00.097Z,12.70
2019-06-15T23:43:48.426Z,13.20
2019-06-15T23:46:37.444Z,12.83
2019-06-15T23:49:26.944Z,11.77
2019-06-15T23:52:15.991Z,12.60
2019-06-15T23:55:05.241Z,10.70
2019-06-15T23:57:54.229Z,11.70
